Time;durP1;ratioP1;P1;durP2;ratioP2;P2;SDS_P1;SDS_P2;PMS_P1;PMS_P2;Temp;Humidity;BMP_temperature;BMP_pressure;BME280_temperature;BME280_humidity;BME280_pressure;Samples;Min_cycle;Max_cycle;Signal;HPM_P1;HPM_P2
2023/05/13 00:00:19;;;;;;;50.77;9.83;;;;;;;12.85;93.05;98139.91;4169145;28;20691;-87
2023/05/13 00:02:22;;;;;;;61.33;9.40;;;;;;;12.85;92.80;98144.28;4153544;28;21048;-88
2023/05/13 00:04:26;;;;;;;50.93;10.27;;;;;;;12.85;92.88;98153.00;4171961;28;20700;-87
2023/05/13 00:06:30;;;;;;;50.70;12.20;;;;;;;12.87;92.76;98152.84;4167425;28;20686;-88
2023/05/13 00:08:34;;;;;;;63.27;8.23;;;;;;;12.83;93.34;98144.41;4170203;28;20622;-88
2023/05/13 00:10:37;;;;;;;48.67;6.90;;;;;;;12.85;93.41;98154.75;4144310;28;20654;-87
2023/05/13 00:12:40;;;;;;;84.80;8.90;;;;;;;12.83;92.55;98146.19;4166336;28;20644;-87
2023/05/13 00:14:43;;;;;;;68.60;8.33;;;;;;;12.81;92.42;98154.13;4154539;28;21266;-88
2023/05/13 00:16:46;;;;;;;36.77;9.57;;;;;;;12.81;92.81;98151.53;4164302;28;20640;-87
2023/05/13 00:18:50;;;;;;;64.27;9.10;;;;;;;12.81;92.28;98148.91;4168644;28;21259;-88
2023/05/13 00:20:55;;;;;;;66.43;10.73;;;;;;;12.80;92.57;98149.84;4151344;28;20750;-88
2023/05/13 00:22:58;;;;;;;50.23;6.70;;;;;;;12.81;91.92;98142.84;4150015;28;20634;-88
2023/05/13 00:25:01;;;;;;;49.40;9.93;;;;;;;12.80;91.95;98147.22;4170452;28;20646;-87
2023/05/13 00:27:04;;;;;;;57.03;10.67;;;;;;;12.81;91.86;98148.06;4167476;28;20644;-88
2023/05/13 00:29:07;;;;;;;65.63;9.70;;;;;;;12.80;92.89;98152.47;4152124;28;20658;-88
2023/05/13 00:31:11;;;;;;;68.87;10.23;;;;;;;12.80;92.21;98143.78;4167642;28;20739;-88
2023/05/13 00:33:14;;;;;;;75.13;9.40;;;;;;;12.79;92.66;98152.56;4158921;28;20716;-88
2023/05/13 00:35:17;;;;;;;67.77;10.10;;;;;;;12.77;91.80;98144.84;4171932;28;21189;-87
2023/05/13 00:37:22;;;;;;;61.60;7.77;;;;;;;12.77;92.41;98147.44;4165720;28;20699;-87
2023/05/13 00:39:26;;;;;;;32.43;10.07;;;;;;;12.76;91.34;98156.28;4158580;28;20658;-88
2023/05/13 00:41:29;;;;;;;73.07;9.47;;;;;;;12.75;92.12;98157.22;4181019;28;20629;-88
2023/05/13 00:43:32;;;;;;;70.30;10.23;;;;;;;12.74;91.36;98150.31;4164753;28;21049;-87
2023/05/13 00:45:36;;;;;;;80.23;10.83;;;;;;;12.72;92.18;98149.59;4152251;28;21297;-87
2023/05/13 00:47:40;;;;;;;74.77;7.83;;;;;;;12.70;92.45;98148.88;4174616;28;20738;-88
2023/05/13 00:49:43;;;;;;;61.33;9.10;;;;;;;12.71;90.98;98153.16;4154350;28;20634;-87
2023/05/13 00:51:46;;;;;;;86.60;11.20;;;;;;;12.68;91.93;98141.28;4176910;28;20626;-88
2023/05/13 00:53:51;;;;;;;41.67;9.50;;;;;;;12.64;91.33;98143.25;4171796;28;20706;-88
2023/05/13 00:55:54;;;;;;;53.30;10.20;;;;;;;12.60;91.91;98147.09;4154642;28;20666;-87
2023/05/13 00:57:57;;;;;;;66.63;9.17;;;;;;;12.55;92.12;98143.13;4174876;28;21095;-88
2023/05/13 01:00:01;;;;;;;88.87;11.13;;;;;;;12.51;90.96;98139.94;4156283;28;20659;-87
2023/05/13 01:02:16;;;;;;;48.43;10.27;;;;;;;12.47;91.51;98145.50;4165593;28;21032;-88
2023/05/13 01:04:27;;;;;;;63.87;11.43;;;;;;;12.44;91.26;98145.72;4160883;28;20679;-88
2023/05/13 01:06:35;;;;;;;55.40;12.73;;;;;;;12.40;91.14;98142.53;4153596;28;20665;-87
2023/05/13 01:08:43;;;;;;;52.37;9.93;;;;;;;12.38;91.43;98143.56;4172085;28;20636;-87
2023/05/13 01:10:51;;;;;;;65.23;9.33;;;;;;;12.35;92.94;98138.56;4167323;28;20653;-88
2023/05/13 01:12:59;;;;;;;66.73;8.80;;;;;;;12.36;92.18;98148.09;4153202;28;21590;-88
2023/05/13 01:15:05;;;;;;;100.37;12.20;;;;;;;12.35;91.32;98144.63;4150587;28;20640;-87
2023/05/13 01:17:12;;;;;;;45.30;8.37;;;;;;;12.31;91.90;98147.56;4173574;28;20649;-87
2023/05/13 01:19:35;;;;;;;76.20;10.93;;;;;;;12.26;92.67;98153.16;4167612;28;20638;-87
2023/05/13 01:21:40;;;;;;;79.73;11.20;;;;;;;12.23;93.09;98152.56;4170243;28;20790;-88
2023/05/13 01:23:43;;;;;;;95.10;11.93;;;;;;;12.22;92.55;98150.03;4152610;28;20642;-87
2023/05/13 01:25:46;;;;;;;61.67;11.13;;;;;;;12.20;92.32;98155.38;4150728;28;24528;-87
2023/05/13 01:27:50;;;;;;;83.57;11.70;;;;;;;12.16;93.31;98146.09;4154355;28;20961;-87
2023/05/13 01:29:55;;;;;;;59.73;10.40;;;;;;;12.13;91.95;98154.16;4171212;28;20731;-83
2023/05/13 01:32:03;;;;;;;72.77;10.20;;;;;;;12.16;92.71;98147.88;4154358;28;20675;-82
2023/05/13 01:34:09;;;;;;;48.80;9.00;;;;;;;12.13;93.35;98146.31;4153604;28;20683;-82
2023/05/13 01:36:13;;;;;;;67.93;9.87;;;;;;;12.12;92.43;98149.91;4154664;28;20660;-82
2023/05/13 01:38:18;;;;;;;38.80;8.90;;;;;;;12.05;92.02;98146.06;4154366;28;20710;-82
2023/05/13 01:40:25;;;;;;;52.10;10.10;;;;;;;12.02;92.34;98140.22;4150094;28;20675;-82
2023/05/13 01:42:40;;;;;;;45.77;10.13;;;;;;;12.03;91.03;98140.13;4156163;28;21051;-82
2023/05/13 01:44:43;;;;;;;85.57;9.63;;;;;;;12.02;91.94;98141.06;4155839;28;20634;-82
2023/05/13 01:46:47;;;;;;;90.23;10.60;;;;;;;11.99;90.27;98137.84;4167489;28;20643;-82
2023/05/13 01:48:52;;;;;;;66.03;11.50;;;;;;;11.93;91.63;98136.50;4155090;28;20659;-82
2023/05/13 01:50:55;;;;;;;59.37;9.50;;;;;;;11.88;90.29;98138.63;4170578;28;20666;-83
2023/05/13 01:52:59;;;;;;;106.93;11.33;;;;;;;11.86;91.61;98142.28;4161259;28;20684;-82
2023/05/13 01:55:03;;;;;;;47.60;7.93;;;;;;;11.85;91.28;98143.25;4162110;28;20634;-82
2023/05/13 01:57:08;;;;;;;55.87;10.63;;;;;;;11.86;92.64;98150.97;4146676;28;20695;-83
2023/05/13 01:59:11;;;;;;;63.67;10.57;;;;;;;11.86;92.69;98147.50;4161385;28;20662;-82
2023/05/13 02:01:14;;;;;;;67.77;10.63;;;;;;;11.85;92.26;98143.25;4166866;28;20702;-82
2023/05/13 02:03:17;;;;;;;28.30;9.27;;;;;;;11.87;90.93;98143.94;4156010;28;20640;-82
2023/05/13 02:05:22;;;;;;;50.13;11.20;;;;;;;11.89;90.98;98140.28;4153987;28;20772;-84
2023/05/13 02:07:25;;;;;;;43.60;8.90;;;;;;;11.90;91.94;98141.13;4166485;28;20630;-84
2023/05/13 02:09:28;;;;;;;47.50;7.07;;;;;;;11.88;90.69;98141.22;4152946;28;20634;-84
2023/05/13 02:11:34;;;;;;;60.33;9.60;;;;;;;11.85;91.30;98143.25;4172882;28;20635;-84
2023/05/13 02:13:37;;;;;;;118.07;16.00;;;;;;;11.86;90.82;98140.50;4170197;28;20728;-84
2023/05/13 02:15:40;;;;;;;45.87;6.70;;;;;;;11.89;90.89;98148.13;4170684;28;20796;-84
2023/05/13 02:17:44;;;;;;;73.97;10.33;;;;;;;11.85;90.96;98135.41;4155151;28;20679;-84
2023/05/13 02:19:48;;;;;;;125.77;10.87;;;;;;;11.81;91.51;98136.56;4154640;28;20672;-84
2023/05/13 02:21:51;;;;;;;62.13;9.10;;;;;;;11.83;90.73;98140.75;4152608;28;20640;-84
2023/05/13 02:23:54;;;;;;;65.73;10.23;;;;;;;11.87;90.95;98146.56;4168942;28;20632;-84
2023/05/13 02:25:57;;;;;;;78.80;10.90;;;;;;;11.89;90.65;98147.28;4164753;28;20624;-84
2023/05/13 02:28:04;;;;;;;77.77;9.83;;;;;;;11.89;90.60;98147.28;4149790;28;20657;-84
2023/05/13 02:30:08;;;;;;;65.53;11.63;;;;;;;11.90;90.83;98151.56;4157502;28;20720;-84
2023/05/13 02:32:11;;;;;;;41.23;6.90;;;;;;;11.82;91.91;98146.06;4153104;28;20648;-84
2023/05/13 02:34:14;;;;;;;68.47;7.50;;;;;;;11.83;91.01;98148.56;4169983;28;20623;-84
2023/05/13 02:36:17;;;;;;;77.07;9.30;;;;;;;11.81;90.43;98147.84;4153687;28;20669;-84
2023/05/13 02:38:21;;;;;;;71.07;12.13;;;;;;;11.81;90.29;98149.63;4156412;28;20649;-84
2023/05/13 02:40:24;;;;;;;51.20;9.13;;;;;;;11.82;91.49;98149.50;4175301;28;21094;-84
2023/05/13 02:42:27;;;;;;;69.87;9.93;;;;;;;11.80;90.49;98146.19;4154245;28;20664;-84
2023/05/13 02:44:32;;;;;;;55.27;11.53;;;;;;;11.82;89.91;98146.06;4152411;28;20709;-84
2023/05/13 02:46:36;;;;;;;52.97;15.67;;;;;;;11.84;91.17;98145.00;4169539;28;20748;-84
2023/05/13 02:48:40;;;;;;;68.53;11.20;;;;;;;11.84;89.88;98145.00;4151589;28;20642;-84
2023/05/13 02:50:43;;;;;;;92.30;10.40;;;;;;;11.84;90.04;98139.78;4168725;28;20624;-84
2023/05/13 02:52:46;;;;;;;79.67;10.10;;;;;;;11.89;90.95;98140.28;4146645;28;20729;-84
2023/05/13 02:54:49;;;;;;;100.50;11.17;;;;;;;11.93;91.22;98143.50;4152477;28;21099;-85
2023/05/13 02:56:53;;;;;;;46.30;11.50;;;;;;;11.93;89.65;98146.13;4172388;28;20640;-84
2023/05/13 02:58:56;;;;;;;52.70;9.50;;;;;;;11.91;89.65;98142.78;4164112;28;21329;-84
2023/05/13 03:01:00;;;;;;;71.93;15.13;;;;;;;11.87;91.01;98142.16;4148657;28;20717;-84
2023/05/13 03:03:04;;;;;;;70.37;10.00;;;;;;;11.80;91.05;98147.94;4156454;28;20643;-84
2023/05/13 03:05:08;;;;;;;89.67;9.90;;;;;;;11.78;90.45;98142.00;4165505;28;21204;-85
2023/05/13 03:07:11;;;;;;;50.63;10.33;;;;;;;11.79;91.05;98141.91;4153961;28;20671;-84
2023/05/13 03:09:14;;;;;;;86.27;10.47;;;;;;;11.78;89.80;98139.38;4159862;28;20625;-84
2023/05/13 03:11:17;;;;;;;43.67;8.53;;;;;;;11.77;90.52;98143.78;4152539;28;20749;-84
2023/05/13 03:13:20;;;;;;;155.53;13.20;;;;;;;11.82;90.76;98144.28;4166208;28;20679;-84
2023/05/13 03:15:23;;;;;;;76.60;11.63;;;;;;;11.77;91.11;98141.19;4150430;28;22412;-84
2023/05/13 03:17:29;;;;;;;56.83;9.93;;;;;;;11.81;90.17;98142.59;4167090;28;20637;-84
2023/05/13 03:19:34;;;;;;;64.53;11.93;;;;;;;11.82;90.03;98144.28;4148383;28;20646;-84
2023/05/13 03:21:37;;;;;;;56.00;10.03;;;;;;;11.90;89.26;98147.16;4170460;28;20656;-84
2023/05/13 03:23:42;;;;;;;80.60;13.60;;;;;;;11.85;90.66;98149.28;4166155;28;20651;-84
2023/05/13 03:25:45;;;;;;;44.80;10.07;;;;;;;11.83;89.09;98140.75;4168683;28;21209;-84
2023/05/13 03:27:49;;;;;;;70.67;8.80;;;;;;;11.85;89.62;98148.47;4150865;28;20641;-84
2023/05/13 03:29:55;;;;;;;83.10;12.63;;;;;;;11.88;89.09;98148.25;4144230;28;20715;-84
2023/05/13 03:31:59;;;;;;;113.97;12.90;;;;;;;11.90;89.45;98160.22;4148351;28;21285;-84
2023/05/13 03:34:04;;;;;;;50.67;8.23;;;;;;;11.84;89.24;98154.63;4165877;28;20632;-84
2023/05/13 03:36:08;;;;;;;62.13;10.53;;;;;;;11.84;88.86;98152.00;4151733;28;20638;-84
2023/05/13 03:38:12;;;;;;;77.40;10.23;;;;;;;11.87;90.80;98152.63;4166180;28;21223;-84
2023/05/13 03:40:19;;;;;;;82.00;11.43;;;;;;;11.87;91.12;98152.63;4151719;28;20699;-84
2023/05/13 03:42:25;;;;;;;75.47;12.30;;;;;;;11.88;89.18;98156.09;4164069;28;20650;-84
2023/05/13 03:44:30;;;;;;;85.37;11.43;;;;;;;11.88;89.84;98149.06;4152548;28;20633;-84
2023/05/13 03:46:34;;;;;;;64.33;12.93;;;;;;;11.87;90.51;98150.00;4170178;28;21353;-84
2023/05/13 03:48:37;;;;;;;49.23;10.13;;;;;;;11.88;90.14;98159.53;4165426;28;20655;-83
2023/05/13 03:50:41;;;;;;;61.50;10.47;;;;;;;11.84;88.12;98152.00;4147962;28;21286;-84
2023/05/13 03:52:44;;;;;;;88.07;10.50;;;;;;;11.84;90.25;98146.78;4155932;28;20631;-84
2023/05/13 03:54:50;;;;;;;58.53;11.33;;;;;;;11.82;88.99;98154.75;4171223;28;20728;-84
2023/05/13 03:56:54;;;;;;;69.83;12.50;;;;;;;11.84;89.93;98152.00;4177524;28;20639;-84
2023/05/13 03:58:57;;;;;;;76.23;12.00;;;;;;;11.86;89.88;98153.59;4168941;28;20624;-84
2023/05/13 04:01:03;;;;;;;48.30;12.53;;;;;;;11.87;87.68;98159.63;4154884;28;20660;-84
2023/05/13 04:03:06;;;;;;;83.47;13.37;;;;;;;11.74;89.54;98166.66;4158063;28;21445;-84
2023/05/13 04:05:10;;;;;;;54.60;12.23;;;;;;;11.75;90.30;98161.34;4172767;28;21239;-84
2023/05/13 04:07:15;;;;;;;53.50;11.30;;;;;;;11.75;90.04;98159.69;4154733;28;20649;-84
2023/05/13 04:09:18;;;;;;;58.17;11.43;;;;;;;11.78;89.97;98165.53;4176190;28;20711;-84
2023/05/13 04:11:21;;;;;;;66.63;11.40;;;;;;;11.79;88.82;98170.63;4169288;28;20617;-84
2023/05/13 04:13:24;;;;;;;67.77;10.63;;;;;;;11.80;89.56;98171.47;4171597;28;21264;-84
2023/05/13 04:15:27;;;;;;;85.43;11.43;;;;;;;11.80;90.16;98180.16;4154720;28;25655;-84
2023/05/13 04:17:30;;;;;;;77.53;13.30;;;;;;;11.80;90.06;98172.31;4155359;28;20629;-84
2023/05/13 04:19:33;;;;;;;91.70;13.83;;;;;;;11.81;89.43;98173.13;4155243;28;20649;-84
2023/05/13 04:21:36;;;;;;;85.60;10.77;;;;;;;11.82;90.03;98186.09;4166018;28;20650;-84
2023/05/13 04:23:41;;;;;;;82.47;13.13;;;;;;;11.81;89.44;98178.38;4168045;28;20636;-84
2023/05/13 04:25:50;;;;;;;79.37;10.23;;;;;;;11.81;90.95;98184.41;4154204;28;21398;-84
2023/05/13 04:27:53;;;;;;;64.77;13.67;;;;;;;11.85;89.04;98187.66;4171759;28;20646;-84
2023/05/13 04:30:06;;;;;;;84.30;11.90;;;;;;;11.84;88.53;98193.81;4147707;28;20776;-84
2023/05/13 04:32:14;;;;;;;51.00;11.27;;;;;;;11.82;88.78;98188.72;4167781;28;20673;-84
2023/05/13 04:34:18;;;;;;;64.07;10.23;;;;;;;11.82;90.52;98187.88;4174120;28;20636;-84
2023/05/13 04:36:23;;;;;;;72.57;12.37;;;;;;;11.94;88.97;98190.44;4156432;28;20737;-84
2023/05/13 04:38:28;;;;;;;40.83;8.20;;;;;;;11.92;88.36;98191.50;4171982;28;20755;-84
2023/05/13 04:40:32;;;;;;;103.67;11.67;;;;;;;11.88;88.72;98190.88;4171769;28;20637;-84
2023/05/13 04:42:43;;;;;;;67.17;9.13;;;;;;;11.89;89.79;98202.16;4152560;28;21068;-84
2023/05/13 04:44:46;;;;;;;86.07;10.93;;;;;;;11.90;91.16;98194.22;4152596;28;20641;-84
2023/05/13 04:46:49;;;;;;;78.83;9.13;;;;;;;11.90;89.69;98194.22;4146246;28;20795;-84
2023/05/13 04:48:52;;;;;;;62.70;10.30;;;;;;;11.82;89.09;98193.94;4152494;28;20633;-84
2023/05/13 04:50:57;;;;;;;58.23;11.20;;;;;;;11.84;90.19;98196.44;4144468;28;20642;-84
2023/05/13 04:53:00;;;;;;;34.27;9.53;;;;;;;11.90;90.63;98199.44;4166837;28;21950;-84
2023/05/13 04:55:05;;;;;;;57.70;8.80;;;;;;;11.95;89.83;98192.13;4150261;28;20642;-84
2023/05/13 04:57:09;;;;;;;103.27;12.73;;;;;;;11.96;89.05;98199.00;4153036;28;20665;-84
2023/05/13 04:59:12;;;;;;;61.40;11.90;;;;;;;11.99;89.11;98198.78;4151173;28;21283;-84
2023/05/13 05:01:16;;;;;;;76.07;11.53;;;;;;;12.02;88.29;98203.78;4148483;28;20680;-84
2023/05/13 05:03:19;;;;;;;67.50;9.63;;;;;;;12.06;88.86;98205.25;4149503;28;20669;-84
2023/05/13 05:05:23;;;;;;;33.43;10.17;;;;;;;12.13;88.83;98208.25;4153064;28;20684;-84
2023/05/13 05:07:27;;;;;;;51.33;12.10;;;;;;;12.17;90.04;98207.91;4153662;28;20621;-84
2023/05/13 05:09:30;;;;;;;69.57;10.63;;;;;;;12.23;89.43;98217.09;4167603;28;20636;-84
2023/05/13 05:11:34;;;;;;;48.30;10.00;;;;;;;12.13;88.38;98206.44;4169945;28;21826;-84
2023/05/13 05:13:39;;;;;;;86.43;14.67;;;;;;;12.13;89.01;98211.69;4167246;28;20695;-84
2023/05/13 05:15:44;;;;;;;71.33;12.63;;;;;;;12.22;88.92;98225.88;4163056;28;20633;-84
2023/05/13 05:17:49;;;;;;;94.27;10.60;;;;;;;12.19;87.66;98221.69;4150662;28;21262;-84
2023/05/13 05:19:52;;;;;;;86.77;11.80;;;;;;;12.27;88.44;98219.38;4150231;28;21014;-84
2023/05/13 05:21:58;;;;;;;46.03;8.63;;;;;;;12.35;88.48;98228.31;4178876;28;20712;-84
2023/05/13 05:24:01;;;;;;;94.53;10.70;;;;;;;12.43;88.40;98232.97;4149899;28;20637;-84
2023/05/13 05:26:05;;;;;;;38.20;9.07;;;;;;;12.43;87.86;98235.59;4166913;28;21099;-84
2023/05/13 05:28:15;;;;;;;70.03;11.03;;;;;;;12.48;88.98;98236.09;4153416;28;20702;-84
2023/05/13 05:30:20;;;;;;;35.67;11.60;;;;;;;12.50;88.83;98237.66;4153360;28;20649;-83
2023/05/13 05:32:31;;;;;;;62.40;9.73;;;;;;;12.53;88.78;98239.22;4153251;28;20638;-84
2023/05/13 05:34:35;;;;;;;52.30;11.00;;;;;;;12.57;87.62;98243.25;4153746;28;20638;-84
2023/05/13 05:36:38;;;;;;;53.10;10.60;;;;;;;12.63;89.15;98248.03;4170215;28;20636;-84
2023/05/13 05:38:42;;;;;;;40.77;10.43;;;;;;;12.69;88.92;98243.22;4172509;28;20632;-84
2023/05/13 05:40:46;;;;;;;58.30;12.53;;;;;;;12.70;87.24;98256.19;4153017;28;21030;-84
2023/05/13 05:42:49;;;;;;;49.27;11.93;;;;;;;12.63;86.44;98248.91;4160687;28;20736;-84
2023/05/13 05:44:52;;;;;;;78.97;10.80;;;;;;;12.62;86.74;98254.25;4168792;28;20723;-84
2023/05/13 05:46:57;;;;;;;46.63;11.53;;;;;;;12.64;88.36;98249.72;4170051;28;21203;-84
2023/05/13 05:49:02;;;;;;;47.37;8.60;;;;;;;12.67;87.63;98255.56;4152149;28;20630;-84
2023/05/13 05:51:08;;;;;;;50.40;8.23;;;;;;;12.73;87.92;98255.97;4166820;28;20684;-84
2023/05/13 05:53:11;;;;;;;60.53;11.23;;;;;;;12.77;87.42;98253.94;4166080;28;20745;-84
2023/05/13 05:55:18;;;;;;;36.20;12.43;;;;;;;12.82;88.20;98257.03;4151030;28;20713;-84
2023/05/13 05:57:21;;;;;;;77.70;11.83;;;;;;;12.87;88.25;98261.03;4151601;28;20641;-84
2023/05/13 05:59:24;;;;;;;69.57;12.20;;;;;;;12.86;87.69;98259.34;4168708;28;20666;-84
2023/05/13 06:01:28;;;;;;;61.43;12.13;;;;;;;12.89;87.45;98261.72;4160601;28;20625;-84
2023/05/13 06:03:35;;;;;;;47.00;11.23;;;;;;;12.89;87.17;98253.06;4155517;28;21255;-84
2023/05/13 06:05:39;;;;;;;41.10;9.63;;;;;;;12.89;86.85;98256.50;4156923;28;20653;-84
2023/05/13 06:07:42;;;;;;;56.97;10.60;;;;;;;12.94;86.10;98259.59;4162348;28;22027;-84
2023/05/13 06:09:45;;;;;;;88.57;12.30;;;;;;;12.91;87.41;98261.63;4166769;28;20648;-84
2023/05/13 06:11:49;;;;;;;95.33;11.93;;;;;;;12.89;86.53;98272.22;4150478;28;21391;-84
2023/05/13 06:13:53;;;;;;;90.17;10.83;;;;;;;12.92;87.33;98271.16;4166590;28;20633;-84
2023/05/13 06:15:56;;;;;;;78.70;9.30;;;;;;;12.96;86.81;98268.19;4152327;28;20632;-84
2023/05/13 06:18:00;;;;;;;49.30;11.73;;;;;;;12.97;86.57;98269.84;4152937;28;20650;-84
2023/05/13 06:20:06;;;;;;;60.00;11.20;;;;;;;13.02;87.58;98272.13;4171244;28;21201;-84
2023/05/13 06:22:11;;;;;;;60.57;8.23;;;;;;;13.04;87.38;98271.06;4154555;28;21087;-84
2023/05/13 06:24:14;;;;;;;51.23;8.80;;;;;;;13.09;86.97;98275.94;4165827;28;20672;-85
2023/05/13 06:26:17;;;;;;;35.83;9.10;;;;;;;13.15;87.22;98263.22;4168063;28;20650;-82
2023/05/13 06:28:20;;;;;;;86.40;11.90;;;;;;;13.22;87.69;98277.53;4147962;28;21424;-83
2023/05/13 06:30:25;;;;;;;56.60;10.37;;;;;;;13.27;86.95;98280.63;4160249;28;20631;-86
2023/05/13 06:32:28;;;;;;;70.37;10.67;;;;;;;13.21;86.60;98278.47;4148871;28;20674;-84
2023/05/13 06:34:32;;;;;;;67.03;11.87;;;;;;;13.25;87.25;98269.44;4161792;28;20661;-82
2023/05/13 06:36:36;;;;;;;67.17;11.00;;;;;;;13.27;86.60;98272.78;4167909;28;20638;-89
2023/05/13 06:38:42;;;;;;;66.93;8.50;;;;;;;13.22;86.67;98274.91;4165158;28;20698;-88
2023/05/13 06:40:55;;;;;;;50.13;9.40;;;;;;;13.21;86.25;98273.25;4166238;28;20645;-89
2023/05/13 06:43:06;;;;;;;51.23;9.33;;;;;;;13.25;86.86;98274.69;4165193;28;20664;-89
2023/05/13 06:45:13;;;;;;;33.53;8.03;;;;;;;13.18;85.36;98274.31;4151997;28;20631;-88
2023/05/13 06:47:17;;;;;;;55.17;13.50;;;;;;;13.12;85.98;98273.09;4172798;28;20626;-88
2023/05/13 06:49:20;;;;;;;84.17;12.93;;;;;;;13.14;86.21;98276.44;4152097;28;20647;-88
2023/05/13 06:51:25;;;;;;;65.70;11.03;;;;;;;13.16;86.30;98280.63;4168028;28;20667;-88
2023/05/13 06:53:30;;;;;;;62.17;11.63;;;;;;;13.18;86.75;98284.81;4168776;28;20731;-88
2023/05/13 06:55:40;;;;;;;45.20;11.20;;;;;;;13.21;86.45;98281.09;4160909;28;20645;-88
2023/05/13 06:57:45;;;;;;;51.60;8.93;;;;;;;13.22;86.29;98285.38;4164261;28;20955;-89
2023/05/13 06:59:48;;;;;;;52.70;8.83;;;;;;;13.16;86.40;98280.63;4162596;28;20697;-89
2023/05/13 07:01:51;;;;;;;66.43;10.67;;;;;;;13.08;85.91;98283.00;4150650;28;20669;-88
2023/05/13 07:03:54;;;;;;;63.37;12.37;;;;;;;13.10;86.46;98278.47;4158283;28;20657;-89
2023/05/13 07:05:58;;;;;;;42.30;10.80;;;;;;;13.13;86.36;98282.66;4164592;28;21237;-88
2023/05/13 07:08:05;;;;;;;71.87;11.53;;;;;;;13.08;86.52;98280.38;4161739;28;20778;-88
2023/05/13 07:10:10;;;;;;;62.33;11.83;;;;;;;13.04;86.47;98283.34;4163834;28;20734;-87
2023/05/13 07:12:14;;;;;;;50.23;10.63;;;;;;;13.09;86.41;98284.63;4149392;28;20634;-87
2023/05/13 07:14:17;;;;;;;78.07;12.67;;;;;;;13.02;86.49;98282.59;4164072;28;20664;-87
2023/05/13 07:16:20;;;;;;;66.90;11.80;;;;;;;13.01;87.22;98278.31;4168302;28;20640;-88
2023/05/13 07:18:23;;;;;;;64.33;11.10;;;;;;;13.04;87.31;98284.16;4164948;28;20672;-85
2023/05/13 07:20:26;;;;;;;65.43;11.93;;;;;;;13.13;87.04;98280.84;4165096;28;20621;-86
2023/05/13 07:22:30;;;;;;;69.83;9.30;;;;;;;13.15;87.38;98276.31;4157317;28;20968;-89
2023/05/13 07:24:33;;;;;;;41.93;8.60;;;;;;;13.13;87.05;98269.53;4158043;28;20650;-88
2023/05/13 07:26:37;;;;;;;59.63;12.70;;;;;;;13.14;87.73;98279.91;4164368;28;20724;-86
2023/05/13 07:28:40;;;;;;;51.00;12.90;;;;;;;13.14;86.65;98277.28;4164808;28;20634;-86
2023/05/13 07:30:43;;;;;;;59.10;10.70;;;;;;;13.15;86.67;98283.34;4143039;28;20696;-84
2023/05/13 07:32:47;;;;;;;56.33;10.00;;;;;;;13.13;87.01;98285.25;4156159;28;20642;-83
2023/05/13 07:34:53;;;;;;;52.17;8.93;;;;;;;13.09;86.46;98289.88;4167956;28;21215;-86
2023/05/13 07:36:56;;;;;;;42.60;11.73;;;;;;;13.09;86.98;98281.19;4161371;28;20631;-84
2023/05/13 07:39:00;;;;;;;48.10;10.37;;;;;;;13.13;86.92;98283.47;4166419;28;20636;-85
2023/05/13 07:41:04;;;;;;;59.17;11.20;;;;;;;13.19;87.23;98283.81;4143399;28;20684;-86
2023/05/13 07:43:09;;;;;;;56.60;10.00;;;;;;;13.19;86.21;98281.22;4168255;28;20641;-90
2023/05/13 07:45:12;;;;;;;51.80;10.90;;;;;;;13.24;86.67;98284.34;4165147;28;21286;-89
2023/05/13 07:47:15;;;;;;;68.33;11.10;;;;;;;13.38;87.39;98284.13;4164036;28;20662;-90
2023/05/13 07:49:19;;;;;;;76.57;12.70;;;;;;;13.43;86.71;98283.75;4164401;28;20642;-89
2023/05/13 07:51:22;;;;;;;61.53;11.40;;;;;;;13.47;86.94;98286.03;4167233;28;20637;-86
2023/05/13 07:53:25;;;;;;;64.03;13.00;;;;;;;13.56;86.51;98289.72;4162388;28;23189;-86
2023/05/13 07:55:28;;;;;;;83.33;10.83;;;;;;;13.57;86.21;98286.16;4164644;28;20639;-93
2023/05/13 07:57:31;;;;;;;42.30;8.00;;;;;;;13.57;85.81;98291.41;4157771;28;20635;-95
2023/05/13 07:59:37;;;;;;;65.73;14.20;;;;;;;13.66;86.81;98287.09;4170397;28;21173;-92
2023/05/13 08:01:42;;;;;;;37.70;11.43;;;;;;;13.83;85.67;98289.25;4166369;28;21060;-90
2023/05/13 08:03:45;;;;;;;73.03;14.00;;;;;;;13.94;85.24;98298.91;4163556;28;21173;-90
2023/05/13 08:05:49;;;;;;;41.67;12.50;;;;;;;13.98;85.54;98301.19;4167625;28;20668;-87
2023/05/13 08:07:55;;;;;;;78.53;11.60;;;;;;;14.09;85.71;98295.94;4152095;28;21293;-89
2023/05/13 08:09:58;;;;;;;84.63;9.93;;;;;;;14.15;84.60;98292.84;4166871;28;21254;-88
2023/05/13 08:12:01;;;;;;;64.70;10.30;;;;;;;14.11;83.56;98291.41;4165693;28;20642;-92
2023/05/13 08:14:05;;;;;;;93.40;11.30;;;;;;;14.10;84.52;98292.34;4163362;28;20662;-89
2023/05/13 08:16:09;;;;;;;84.57;13.00;;;;;;;14.14;84.00;98283.28;4165086;28;21184;-89
2023/05/13 08:18:12;;;;;;;60.83;9.33;;;;;;;14.18;83.25;98289.97;4166973;28;20649;-89
2023/05/13 08:20:16;;;;;;;65.03;10.73;;;;;;;14.24;84.94;98292.13;4163662;28;21410;-89
2023/05/13 08:22:19;;;;;;;99.40;10.70;;;;;;;14.36;84.27;98296.38;4146681;28;20682;-89
2023/05/13 08:24:22;;;;;;;83.67;11.13;;;;;;;14.46;84.18;98295.50;4149403;28;21191;-89
2023/05/13 08:26:25;;;;;;;71.03;11.13;;;;;;;14.55;83.41;98292.13;4166014;28;20651;-92
2023/05/13 08:28:31;;;;;;;49.50;9.80;;;;;;;14.60;84.22;98293.44;4162476;28;21253;-89
2023/05/13 08:30:34;;;;;;;100.23;12.57;;;;;;;14.69;83.82;98305.81;4162184;28;20720;-87
2023/05/13 08:32:39;;;;;;;75.30;11.60;;;;;;;14.76;84.93;98299.13;4155490;28;20693;-91
2023/05/13 08:34:42;;;;;;;65.27;8.17;;;;;;;14.75;82.79;98299.25;4162810;28;20643;-87
2023/05/13 08:36:45;;;;;;;76.43;10.40;;;;;;;14.77;82.72;98302.56;4165726;28;20646;-85
2023/05/13 08:38:48;;;;;;;101.70;10.50;;;;;;;14.87;84.61;98301.69;4164216;28;20710;-87
2023/05/13 08:40:51;;;;;;;45.27;10.73;;;;;;;14.93;83.45;98311.69;4162502;28;21199;-87
2023/05/13 08:42:55;;;;;;;57.47;10.60;;;;;;;14.98;84.16;98304.25;4163741;28;20633;-87
2023/05/13 08:45:00;;;;;;;99.23;11.23;;;;;;;15.06;82.96;98309.72;4163119;28;20671;-89
2023/05/13 08:47:12;;;;;;;45.17;10.50;;;;;;;15.11;82.71;98308.38;4180239;28;20661;-91
2023/05/13 08:49:20;;;;;;;47.60;8.53;;;;;;;15.12;80.93;98314.47;4154087;28;21041;-89
2023/05/13 08:51:23;;;;;;;53.57;12.30;;;;;;;15.12;81.26;98312.69;4167459;28;20725;-89
2023/05/13 08:53:27;;;;;;;42.03;10.73;;;;;;;15.18;80.70;98314.84;4151153;28;20688;-89
2023/05/13 08:55:30;;;;;;;70.37;10.90;;;;;;;15.08;81.49;98311.25;4166660;28;21251;-87
2023/05/13 08:57:33;;;;;;;43.03;9.07;;;;;;;15.07;82.17;98309.59;4157278;28;21216;-85
2023/05/13 08:59:36;;;;;;;110.37;13.57;;;;;;;15.01;81.83;98309.28;4183590;28;20630;-91
2023/05/13 09:01:39;;;;;;;51.93;11.70;;;;;;;14.96;81.69;98300.94;4165034;28;20631;-88
2023/05/13 09:03:52;;;;;;;49.77;9.80;;;;;;;14.96;82.01;98313.22;4171024;28;20688;-94
2023/05/13 09:05:57;;;;;;;57.90;9.63;;;;;;;15.04;83.65;98314.25;4169456;28;20681;-91
2023/05/13 09:08:02;;;;;;;54.23;10.03;;;;;;;15.10;82.94;98311.13;4165819;28;20634;-94
2023/05/13 09:10:07;;;;;;;50.40;9.67;;;;;;;15.05;81.61;98310.69;4170053;28;21198;-90
2023/05/13 09:12:10;;;;;;;36.87;10.20;;;;;;;15.09;82.33;98314.72;4169250;28;20625;-90
2023/05/13 09:14:14;;;;;;;25.80;9.33;;;;;;;15.06;83.08;98307.09;4165501;28;20633;-89
2023/05/13 09:16:17;;;;;;;45.00;8.50;;;;;;;15.11;82.81;98310.19;4156139;28;20668;-85
2023/05/13 09:18:20;;;;;;;40.03;11.13;;;;;;;15.16;82.93;98308.81;4164744;28;20641;-89
2023/05/13 09:20:27;;;;;;;43.73;9.27;;;;;;;15.16;81.27;98310.63;4167770;28;20630;-91
2023/05/13 09:22:32;;;;;;;34.70;12.53;;;;;;;15.19;82.51;98310.41;4169878;28;22902;-90
2023/05/13 09:24:35;;;;;;;52.73;10.90;;;;;;;15.20;82.36;98309.47;4168074;28;20702;-90
2023/05/13 09:26:39;;;;;;;47.97;10.00;;;;;;;15.23;82.33;98312.66;4167370;28;20778;-89
2023/05/13 09:28:42;;;;;;;67.77;9.00;;;;;;;15.22;82.36;98312.78;4167315;28;20689;-86
2023/05/13 09:30:54;;;;;;;38.90;8.40;;;;;;;15.14;80.20;98304.69;4165129;28;20640;-87
2023/05/13 09:33:10;;;;;;;69.37;10.93;;;;;;;15.13;81.41;98311.72;4162657;28;20653;-87